createdAt,value
2023-02-28T00:00:17.823Z,102831.44
2023-02-28T00:03:23.013Z,102826.22
2023-02-28T00:06:28.376Z,102837.91
2023-02-28T00:09:34.920Z,102837.53
2023-02-28T00:12:40.547Z,102836.19
2023-02-28T00:15:46.419Z,102841.31
2023-02-28T00:18:52.485Z,102837.75
2023-02-28T00:21:57.706Z,102843.91
2023-02-28T00:25:04.392Z,102852.00
2023-02-28T00:28:11.918Z,102851.94
2023-02-28T00:31:17.261Z,102852.16
2023-02-28T00:34:22.332Z,102862.09
2023-02-28T00:37:27.463Z,102851.19
2023-02-28T00:40:34.011Z,102839.81
2023-02-28T00:43:41.126Z,102840.19
2023-02-28T00:46:46.131Z,102844.72
2023-02-28T00:49:51.392Z,102832.50
2023-02-28T00:52:56.443Z,102838.31
2023-02-28T00:56:03.381Z,102834.16
2023-02-28T00:59:08.633Z,102840.56
2023-02-28T01:02:13.986Z,102832.81
2023-02-28T01:05:19.191Z,102838.84
2023-02-28T01:08:24.869Z,102835.41
2023-02-28T01:11:31.249Z,102827.09
2023-02-28T01:14:37.150Z,102825.44
2023-02-28T01:17:42.284Z,102830.25
2023-02-28T01:20:48.955Z,102830.69
2023-02-28T01:23:55.254Z,102830.31
2023-02-28T01:27:03.118Z,102828.88
2023-02-28T01:30:11.774Z,102814.66
2023-02-28T01:33:17.061Z,102837.91
2023-02-28T01:36:24.876Z,102821.47
2023-02-28T01:39:30.014Z,102835.16
2023-02-28T01:42:36.667Z,102829.94
2023-02-28T01:45:42.367Z,102822.97
2023-02-28T01:48:50.811Z,102841.13
2023-02-28T01:51:57.890Z,102837.78
2023-02-28T01:55:05.210Z,102847.59
2023-02-28T01:58:16.480Z,102831.50
2023-02-28T02:01:23.513Z,102834.03
2023-02-28T02:04:35.186Z,102829.03
2023-02-28T02:07:43.213Z,102837.41
2023-02-28T02:10:51.314Z,102830.41
2023-02-28T02:14:13.270Z,102832.75
2023-02-28T02:17:24.833Z,102821.97
2023-02-28T02:21:04.119Z,102819.41
2023-02-28T02:24:53.891Z,102823.50
2023-02-28T02:28:27.794Z,102824.88
2023-02-28T02:31:54.496Z,102836.41
2023-02-28T02:35:07.005Z,102819.31
2023-02-28T02:38:16.413Z,102830.19
2023-02-28T02:41:25.595Z,102831.47
2023-02-28T02:44:32.883Z,102832.84
2023-02-28T02:47:38.876Z,102845.31
2023-02-28T02:50:49.067Z,102831.13
2023-02-28T02:53:57.071Z,102825.16
2023-02-28T02:57:04.265Z,102828.09
2023-02-28T03:00:12.570Z,102823.97
2023-02-28T03:03:21.769Z,102838.03
2023-02-28T03:06:28.808Z,102833.19
2023-02-28T03:09:36.583Z,102836.38
2023-02-28T03:12:47.387Z,102832.50
2023-02-28T03:16:06.260Z,102832.03
2023-02-28T03:19:26.440Z,102823.56
2023-02-28T03:22:50.772Z,102812.38
2023-02-28T03:26:01.473Z,102816.75
2023-02-28T03:29:11.887Z,102830.00
2023-02-28T03:32:22.755Z,102827.56
2023-02-28T03:35:30.925Z,102824.91
2023-02-28T03:38:41.303Z,102825.97
2023-02-28T03:41:48.901Z,102824.91
2023-02-28T03:44:56.440Z,102829.34
2023-02-28T03:48:05.501Z,102828.72
2023-02-28T03:51:13.886Z,102833.13
2023-02-28T03:54:22.131Z,102822.44
2023-02-28T03:57:36.884Z,102832.66
2023-02-28T04:00:44.692Z,102832.53
2023-02-28T04:03:49.888Z,102819.06
2023-02-28T04:06:55.399Z,102816.00
2023-02-28T04:10:02.574Z,102814.09
2023-02-28T04:13:07.992Z,102813.19
2023-02-28T04:16:24.494Z,102811.28
2023-02-28T04:19:37.540Z,102811.53
2023-02-28T04:22:42.591Z,102813.75
2023-02-28T04:25:49.353Z,102825.06
2023-02-28T04:28:54.464Z,102819.81
2023-02-28T04:32:00.505Z,102827.56
2023-02-28T04:35:06.387Z,102805.00
2023-02-28T04:38:15.679Z,102803.34
2023-02-28T04:41:22.427Z,102807.72
2023-02-28T04:44:27.593Z,102805.94
2023-02-28T04:47:32.706Z,102809.13
2023-02-28T04:50:37.930Z,102811.53
2023-02-28T04:53:44.654Z,102806.84
2023-02-28T04:56:51.427Z,102827.56
2023-02-28T04:59:56.529Z,102827.38
2023-02-28T05:03:01.714Z,102825.66
2023-02-28T05:06:07.102Z,102832.06
2023-02-28T05:09:13.669Z,102833.72
2023-02-28T05:12:19.837Z,102836.38
2023-02-28T05:15:25.033Z,102839.91
2023-02-28T05:18:30.718Z,102837.38
2023-02-28T05:21:37.387Z,102837.31
2023-02-28T05:24:43.788Z,102841.63
2023-02-28T05:27:50.674Z,102841.16
2023-02-28T05:30:55.778Z,102844.66
2023-02-28T05:34:01.223Z,102844.66
2023-02-28T05:37:06.343Z,102842.06
2023-02-28T05:40:13.998Z,102839.63
2023-02-28T05:43:22.822Z,102849.75
2023-02-28T05:46:27.911Z,102855.34
2023-02-28T05:49:32.698Z,102848.75
2023-02-28T05:52:38.394Z,102853.00
2023-02-28T05:55:43.593Z,102844.66
2023-02-28T05:58:50.104Z,102844.59
2023-02-28T06:01:57.057Z,102856.44
2023-02-28T06:05:02.189Z,102860.81
2023-02-28T06:08:08.288Z,102862.63
2023-02-28T06:11:13.423Z,102867.03
2023-02-28T06:14:22.125Z,102874.63
2023-02-28T06:17:27.227Z,102877.94
2023-02-28T06:20:32.394Z,102871.31
2023-02-28T06:23:37.201Z,102864.63
2023-02-28T06:26:43.639Z,102879.09
2023-02-28T06:29:50.056Z,102874.19
2023-02-28T06:32:56.395Z,102888.56
2023-02-28T06:36:01.705Z,102882.72
2023-02-28T06:39:06.864Z,102866.91
2023-02-28T06:42:12.700Z,102866.44
2023-02-28T06:45:19.776Z,102872.47
2023-02-28T06:48:24.902Z,102868.53
2023-02-28T06:51:30.268Z,102872.22
2023-02-28T06:54:35.684Z,102874.97
2023-02-28T06:57:40.897Z,102876.75
2023-02-28T07:00:48.166Z,102867.84
2023-02-28T07:03:53.428Z,102876.44
2023-02-28T07:06:58.745Z,102871.56
2023-02-28T07:10:03.713Z,102881.13
2023-02-28T07:13:09.839Z,102877.94
2023-02-28T07:16:17.362Z,102884.84
2023-02-28T07:19:22.535Z,102878.38
2023-02-28T07:22:27.721Z,102865.09
2023-02-28T07:25:35.192Z,102865.13
2023-02-28T07:28:40.387Z,102872.81
2023-02-28T07:31:47.929Z,102869.47
2023-02-28T07:34:53.105Z,102874.41
2023-02-28T07:37:59.513Z,102877.16
2023-02-28T07:41:06.260Z,102862.78
2023-02-28T07:44:12.278Z,102862.84
2023-02-28T07:47:18.905Z,102865.59
2023-02-28T07:50:26.792Z,102866.59
2023-02-28T07:53:32.670Z,102851.66
2023-02-28T07:56:37.971Z,102856.81
2023-02-28T07:59:44.224Z,102852.97
2023-02-28T08:02:52.595Z,102871.94
2023-02-28T08:05:57.945Z,102859.41
2023-02-28T08:09:03.077Z,102850.41
2023-02-28T08:12:08.707Z,102843.06
2023-02-28T08:15:14.143Z,102844.19
2023-02-28T08:18:20.910Z,102841.94
2023-02-28T08:21:25.738Z,102837.19
2023-02-28T08:24:32.205Z,102846.75
2023-02-28T08:27:38.864Z,102838.38
2023-02-28T08:30:43.938Z,102848.75
2023-02-28T08:33:52.213Z,102851.44
2023-02-28T08:36:57.506Z,102854.91
2023-02-28T08:40:02.884Z,102850.88
2023-02-28T08:43:08.435Z,102847.66
2023-02-28T08:46:15.821Z,102838.72
2023-02-28T08:49:22.386Z,102836.00
2023-02-28T08:52:27.675Z,102835.13
2023-02-28T08:55:32.774Z,102824.28
2023-02-28T08:58:38.508Z,102838.91
2023-02-28T09:01:44.650Z,102834.81
2023-02-28T09:04:51.212Z,102831.69
2023-02-28T09:07:57.809Z,102817.53
2023-02-28T09:11:04.019Z,102820.28
2023-02-28T09:14:09.237Z,102813.47
2023-02-28T09:17:14.383Z,102806.88
2023-02-28T09:20:21.624Z,102800.97
2023-02-28T09:23:27.097Z,102801.88
2023-02-28T09:26:38.680Z,102800.28
2023-02-28T09:29:48.450Z,102788.13
2023-02-28T09:32:54.762Z,102781.41
2023-02-28T09:36:05.179Z,102779.22
2023-02-28T09:39:10.507Z,102775.41
2023-02-28T09:42:24.586Z,102779.81
2023-02-28T09:45:33.726Z,102778.41
2023-02-28T09:48:43.582Z,102789.66
2023-02-28T09:51:55.601Z,102778.88
2023-02-28T09:55:23.423Z,102761.47
2023-02-28T09:58:34.573Z,102769.19
2023-02-28T10:01:44.711Z,102770.91
2023-02-28T10:04:56.008Z,102769.34
2023-02-28T10:08:09.286Z,102775.28
2023-02-28T10:11:17.660Z,102779.03
2023-02-28T10:14:24.965Z,102777.28
2023-02-28T10:17:49.247Z,102773.38
2023-02-28T10:21:01.846Z,102782.91
2023-02-28T10:24:18.998Z,102802.38
2023-02-28T10:27:25.839Z,102803.53
2023-02-28T10:30:31.421Z,102804.44
2023-02-28T10:33:38.100Z,102805.16
2023-02-28T10:36:45.173Z,102806.13
2023-02-28T10:39:52.230Z,102799.50
2023-02-28T10:43:01.866Z,102802.69
2023-02-28T10:46:16.007Z,102801.00
2023-02-28T10:49:24.076Z,102797.63
2023-02-28T10:52:41.629Z,102786.06
2023-02-28T10:55:48.107Z,102781.09
2023-02-28T10:58:56.135Z,102780.38
2023-02-28T11:02:01.458Z,102791.41
2023-02-28T11:05:27.591Z,102790.50
2023-02-28T11:08:32.746Z,102776.97
2023-02-28T11:11:47.527Z,102787.16
2023-02-28T11:14:54.789Z,102789.06
2023-02-28T11:18:02.820Z,102797.69
2023-02-28T11:21:08.399Z,102782.03
2023-02-28T11:24:22.039Z,102782.41
2023-02-28T11:27:49.263Z,102774.16
2023-02-28T11:31:05.016Z,102786.13
2023-02-28T11:34:28.724Z,102774.59
2023-02-28T11:37:34.446Z,102777.22
2023-02-28T11:40:46.279Z,102772.38
2023-02-28T11:44:03.203Z,102775.69
2023-02-28T11:47:15.107Z,102774.59
2023-02-28T11:50:29.610Z,102772.16
2023-02-28T11:54:02.106Z,102770.25
2023-02-28T11:57:21.070Z,102756.41
2023-02-28T12:00:43.239Z,102745.41
2023-02-28T12:03:55.858Z,102743.81
2023-02-28T12:07:06.155Z,102744.50
2023-02-28T12:10:21.117Z,102742.09
2023-02-28T12:13:31.492Z,102737.06
2023-02-28T12:16:48.917Z,102732.25
2023-02-28T12:20:01.525Z,102741.34
2023-02-28T12:23:24.593Z,102744.81
2023-02-28T12:26:37.346Z,102744.53
2023-02-28T12:29:48.470Z,102748.56
2023-02-28T12:32:57.642Z,102724.25
2023-02-28T12:36:06.046Z,102721.13
2023-02-28T12:39:15.258Z,102725.38
2023-02-28T12:42:24.795Z,102718.59
2023-02-28T12:45:39.169Z,102722.88
2023-02-28T12:48:49.039Z,102724.56
2023-02-28T12:51:54.665Z,102722.72
2023-02-28T12:55:05.883Z,102721.16
2023-02-28T12:58:15.880Z,102735.81
2023-02-28T13:01:45.872Z,102735.97
2023-02-28T13:05:22.983Z,102732.53
2023-02-28T13:08:44.186Z,102718.13
2023-02-28T13:11:50.302Z,102728.09
2023-02-28T13:15:07.309Z,102717.13
2023-02-28T13:18:33.014Z,102721.41
2023-02-28T13:21:45.734Z,102716.31
2023-02-28T13:24:52.797Z,102729.97
2023-02-28T13:28:01.925Z,102714.06
2023-02-28T13:31:08.245Z,102715.84
2023-02-28T13:34:18.237Z,102714.19
2023-02-28T13:37:39.266Z,102722.56
2023-02-28T13:40:44.393Z,102725.91
2023-02-28T13:44:07.065Z,102727.41
2023-02-28T13:47:32.311Z,102734.09
2023-02-28T13:50:39.143Z,102725.63
2023-02-28T13:54:00.462Z,102722.81
2023-02-28T13:57:15.643Z,102721.13
2023-02-28T14:00:31.352Z,102721.03
2023-02-28T14:03:49.033Z,102726.94
2023-02-28T14:06:54.641Z,102737.34
2023-02-28T14:10:06.591Z,102735.38
2023-02-28T14:13:31.518Z,102730.03
2023-02-28T14:16:42.924Z,102716.44
2023-02-28T14:19:51.050Z,102725.75
2023-02-28T14:23:04.919Z,102738.53
2023-02-28T14:26:22.081Z,102750.19
2023-02-28T14:29:38.640Z,102737.72
2023-02-28T14:32:48.584Z,102708.94
2023-02-28T14:36:04.325Z,102704.66
2023-02-28T14:39:13.526Z,102724.91
2023-02-28T14:42:32.312Z,102721.59
2023-02-28T14:45:38.546Z,102718.09
2023-02-28T14:48:43.853Z,102713.69
2023-02-28T14:51:50.251Z,102698.44
2023-02-28T14:54:56.967Z,102693.38
2023-02-28T14:58:07.502Z,102705.28
2023-02-28T15:01:13.779Z,102704.44
2023-02-28T15:04:25.610Z,102694.19
2023-02-28T15:07:31.306Z,102689.16
2023-02-28T15:10:36.741Z,102700.00
2023-02-28T15:13:46.373Z,102707.59
2023-02-28T15:16:55.422Z,102703.09
2023-02-28T15:20:00.365Z,102700.38
2023-02-28T15:23:05.646Z,102702.63
2023-02-28T15:26:15.078Z,102704.19
2023-02-28T15:29:24.025Z,102704.00
2023-02-28T15:32:30.893Z,102703.03
2023-02-28T15:35:36.773Z,102695.34
2023-02-28T15:38:42.012Z,102700.22
2023-02-28T15:41:47.521Z,102697.72
2023-02-28T15:44:53.936Z,102700.91
2023-02-28T15:48:02.672Z,102699.97
2023-02-28T15:51:20.274Z,102699.06
2023-02-28T15:54:29.581Z,102691.88
2023-02-28T15:57:34.385Z,102691.66
2023-02-28T16:00:40.978Z,102674.78
2023-02-28T16:03:48.354Z,102679.50
2023-02-28T16:07:04.904Z,102670.22
2023-02-28T16:10:11.718Z,102664.50
2023-02-28T16:13:17.066Z,102659.28
2023-02-28T16:16:26.770Z,102670.19
2023-02-28T16:19:33.806Z,102655.88
2023-02-28T16:22:39.671Z,102682.25
2023-02-28T16:25:47.132Z,102674.16
2023-02-28T16:28:53.378Z,102680.16
2023-02-28T16:32:00.171Z,102679.78
2023-02-28T16:35:05.495Z,102690.03
2023-02-28T16:38:11.027Z,102691.91
2023-02-28T16:41:19.967Z,102688.56
2023-02-28T16:44:30.379Z,102685.44
2023-02-28T16:47:36.849Z,102689.34
2023-02-28T16:50:42.296Z,102687.13
2023-02-28T16:53:47.772Z,102704.53
2023-02-28T16:56:53.194Z,102690.13
2023-02-28T16:59:58.448Z,102699.25
2023-02-28T17:03:07.472Z,102709.25
2023-02-28T17:06:20.422Z,102701.75
2023-02-28T17:09:40.081Z,102695.91
2023-02-28T17:12:46.833Z,102708.22
2023-02-28T17:15:52.182Z,102715.41
2023-02-28T17:19:01.426Z,102712.81
2023-02-28T17:22:06.616Z,102718.53
2023-02-28T17:25:13.277Z,102701.47
2023-02-28T17:28:18.567Z,102713.16
2023-02-28T17:31:23.861Z,102708.06
2023-02-28T17:34:30.371Z,102702.28
2023-02-28T17:37:35.594Z,102703.13
2023-02-28T17:40:40.713Z,102696.03
2023-02-28T17:43:45.883Z,102692.81
2023-02-28T17:46:51.706Z,102685.06
2023-02-28T17:49:58.208Z,102684.06
2023-02-28T17:53:03.119Z,102688.72
2023-02-28T17:56:10.999Z,102686.59
2023-02-28T17:59:16.582Z,102684.06
2023-02-28T18:02:21.885Z,102678.88
2023-02-28T18:05:29.733Z,102682.97
2023-02-28T18:08:36.276Z,102678.69
2023-02-28T18:11:44.900Z,102676.41
2023-02-28T18:14:50.086Z,102675.38
2023-02-28T18:17:56.643Z,102678.78
2023-02-28T18:21:03.611Z,102676.97
2023-02-28T18:24:08.801Z,102676.13
2023-02-28T18:27:15.463Z,102678.66
2023-02-28T18:30:22.261Z,102677.03
2023-02-28T18:33:27.445Z,102671.41
2023-02-28T18:36:34.061Z,102666.94
2023-02-28T18:39:39.083Z,102670.28
2023-02-28T18:42:44.564Z,102679.50
2023-02-28T18:45:50.103Z,102679.41
2023-02-28T18:48:55.575Z,102682.03
2023-02-28T18:52:02.048Z,102684.00
2023-02-28T18:55:08.494Z,102681.91
2023-02-28T18:58:14.583Z,102683.56
2023-02-28T19:01:21.494Z,102692.00
2023-02-28T19:04:26.650Z,102691.84
2023-02-28T19:07:33.370Z,102683.34
2023-02-28T19:10:41.300Z,102677.38
2023-02-28T19:13:46.912Z,102684.25
2023-02-28T19:16:52.887Z,102688.34
2023-02-28T19:19:57.935Z,102686.00
2023-02-28T19:23:04.483Z,102693.03
2023-02-28T19:26:12.387Z,102708.06
2023-02-28T19:29:17.410Z,102715.19
2023-02-28T19:32:23.092Z,102732.59
2023-02-28T19:35:28.320Z,102724.19
2023-02-28T19:38:34.897Z,102718.00
2023-02-28T19:41:40.209Z,102714.94
2023-02-28T19:44:46.079Z,102714.59
2023-02-28T19:47:51.186Z,102727.34
2023-02-28T19:50:59.121Z,102713.78
2023-02-28T19:54:05.851Z,102718.13
2023-02-28T19:57:12.918Z,102717.47
2023-02-28T20:00:21.730Z,102725.09
2023-02-28T20:03:27.183Z,102718.88
2023-02-28T20:06:33.861Z,102723.81
2023-02-28T20:09:40.718Z,102714.25
2023-02-28T20:12:45.610Z,102721.19
2023-02-28T20:15:50.950Z,102733.91
2023-02-28T20:18:56.218Z,102736.13
2023-02-28T20:22:02.840Z,102750.00
2023-02-28T20:25:11.524Z,102754.72
2023-02-28T20:28:25.458Z,102762.38
2023-02-28T20:31:30.719Z,102757.22
2023-02-28T20:34:36.056Z,102756.44
2023-02-28T20:37:41.389Z,102755.72
2023-02-28T20:40:47.682Z,102752.34
2023-02-28T20:43:58.173Z,102748.41
2023-02-28T20:47:03.797Z,102752.16
2023-02-28T20:50:10.838Z,102758.56
2023-02-28T20:53:16.325Z,102751.63
2023-02-28T20:56:23.795Z,102750.66
2023-02-28T20:59:28.929Z,102762.41
2023-02-28T21:02:34.150Z,102758.53
2023-02-28T21:05:39.339Z,102764.88
2023-02-28T21:08:44.763Z,102761.50
2023-02-28T21:11:55.957Z,102758.25
2023-02-28T21:15:01.142Z,102775.75
2023-02-28T21:18:06.695Z,102770.16
2023-02-28T21:21:15.155Z,102776.09
2023-02-28T21:24:20.979Z,102766.69
2023-02-28T21:27:27.521Z,102782.44
2023-02-28T21:30:32.689Z,102780.84
2023-02-28T21:33:38.182Z,102798.25
2023-02-28T21:36:47.526Z,102789.69
2023-02-28T21:39:52.642Z,102798.84
2023-02-28T21:42:59.156Z,102800.34
2023-02-28T21:46:04.882Z,102812.00
2023-02-28T21:49:10.592Z,102813.16
2023-02-28T21:52:15.703Z,102812.78
2023-02-28T21:55:22.285Z,102818.97
2023-02-28T21:58:28.803Z,102829.50
2023-02-28T22:01:35.855Z,102830.88
2023-02-28T22:04:40.994Z,102833.72
2023-02-28T22:07:46.905Z,102843.06
2023-02-28T22:10:51.729Z,102839.34
2023-02-28T22:14:00.044Z,102843.84
2023-02-28T22:17:05.253Z,102846.03
2023-02-28T22:20:14.169Z,102856.09
2023-02-28T22:23:19.258Z,102858.38
2023-02-28T22:26:25.000Z,102846.28
2023-02-28T22:29:31.605Z,102855.06
2023-02-28T22:32:37.689Z,102861.97
2023-02-28T22:35:42.881Z,102859.47
2023-02-28T22:38:50.879Z,102855.59
2023-02-28T22:41:57.263Z,102867.00
2023-02-28T22:45:04.146Z,102859.91
2023-02-28T22:48:11.881Z,102873.84
2023-02-28T22:51:19.011Z,102871.41
2023-02-28T22:54:23.774Z,102866.09
2023-02-28T22:57:29.243Z,102866.06
2023-02-28T23:00:35.691Z,102858.75
2023-02-28T23:03:42.082Z,102869.25
2023-02-28T23:06:47.534Z,102859.75
2023-02-28T23:09:54.732Z,102875.94
2023-02-28T23:13:00.694Z,102864.44
2023-02-28T23:16:09.779Z,102865.38
2023-02-28T23:19:18.693Z,102875.41
2023-02-28T23:22:23.969Z,102878.72
2023-02-28T23:25:29.238Z,102884.03
2023-02-28T23:28:34.111Z,102885.94
2023-02-28T23:31:40.718Z,102892.63
2023-02-28T23:34:46.051Z,102884.31
2023-02-28T23:37:50.988Z,102883.84
2023-02-28T23:40:56.253Z,102887.38
2023-02-28T23:44:04.225Z,102895.41
2023-02-28T23:47:14.016Z,102895.56
2023-02-28T23:50:19.460Z,102899.56
2023-02-28T23:53:24.356Z,102891.22
2023-02-28T23:56:30.704Z,102890.09
2023-02-28T23:59:36.223Z,102889.28
